createdAt,value
2019-04-07T00:01:07.055Z,8.20
2019-04-07T00:03:39.309Z,8.30
2019-04-07T00:06:08.372Z,8.30
2019-04-07T00:08:37.703Z,8.30
2019-04-07T00:11:06.836Z,8.30
2019-04-07T00:13:36.451Z,8.20
2019-04-07T00:16:05.548Z,8.20
2019-04-07T00:18:34.486Z,8.20
2019-04-07T00:21:03.985Z,8.20
2019-04-07T00:23:33.559Z,8.10
2019-04-07T00:26:04.353Z,8.10
2019-04-07T00:28:33.369Z,8.10
2019-04-07T00:31:02.521Z,8.20
2019-04-07T00:33:32.209Z,8.20
2019-04-07T00:36:01.472Z,8.20
2019-04-07T00:38:30.543Z,8.20
2019-04-07T00:40:59.522Z,8.20
2019-04-07T00:43:29.238Z,8.20
2019-04-07T00:46:01.331Z,8.20
2019-04-07T00:48:31.013Z,8.20
2019-04-07T00:51:00.299Z,8.20
2019-04-07T00:53:29.983Z,8.20
2019-04-07T00:55:59.438Z,8.20
2019-04-07T00:58:29.015Z,8.20
2019-04-07T01:00:58.809Z,8.10
2019-04-07T01:03:27.860Z,8.10
2019-04-07T01:05:56.727Z,8.10
2019-04-07T01:08:27.389Z,8.10
2019-04-07T01:10:56.951Z,8.00
2019-04-07T01:13:26.266Z,8.00
2019-04-07T01:15:56.007Z,8.00
2019-04-07T01:18:26.802Z,8.00
2019-04-07T01:20:55.728Z,8.00
2019-04-07T01:23:24.689Z,7.90
2019-04-07T01:25:54.158Z,7.90
2019-04-07T01:28:23.426Z,7.90
2019-04-07T01:30:53.337Z,7.90
2019-04-07T01:33:22.377Z,7.90
2019-04-07T01:35:51.328Z,7.90
2019-04-07T01:38:20.464Z,7.90
2019-04-07T01:40:51.125Z,7.90
2019-04-07T01:43:21.745Z,7.90
2019-04-07T01:46:05.233Z,8.00
2019-04-07T01:48:48.132Z,8.00
2019-04-07T01:51:18.657Z,8.00
2019-04-07T01:53:51.979Z,8.00
2019-04-07T01:56:26.277Z,8.00
2019-04-07T01:58:57.108Z,8.00
2019-04-07T02:01:39.458Z,7.90
2019-04-07T02:04:25.904Z,7.90
2019-04-07T02:06:56.512Z,7.90
2019-04-07T02:09:27.143Z,7.90
2019-04-07T02:12:04.631Z,7.80
2019-04-07T02:14:39.291Z,7.80
2019-04-07T02:17:13.114Z,7.80
2019-04-07T02:19:47.149Z,7.80
2019-04-07T02:22:21.032Z,7.80
2019-04-07T02:24:58.625Z,7.80
2019-04-07T02:27:39.515Z,7.80
2019-04-07T02:30:16.168Z,7.80
2019-04-07T02:32:49.995Z,7.80
2019-04-07T02:35:24.632Z,7.80
2019-04-07T02:38:13.291Z,7.80
2019-04-07T02:40:48.771Z,7.80
2019-04-07T02:43:19.674Z,7.80
2019-04-07T02:45:50.678Z,7.80
2019-04-07T02:48:24.496Z,7.80
2019-04-07T02:50:58.751Z,7.80
2019-04-07T02:53:36.923Z,7.80
2019-04-07T02:56:15.195Z,7.80
2019-04-07T02:58:49.788Z,7.80
2019-04-07T03:01:20.443Z,7.80
2019-04-07T03:04:07.381Z,7.80
2019-04-07T03:06:53.120Z,7.90
2019-04-07T03:09:37.723Z,7.90
2019-04-07T03:12:08.296Z,7.90
2019-04-07T03:14:45.653Z,7.90
2019-04-07T03:17:22.050Z,7.90
2019-04-07T03:20:09.925Z,7.90
2019-04-07T03:22:43.902Z,7.90
2019-04-07T03:25:17.190Z,7.90
2019-04-07T03:28:04.708Z,7.90
2019-04-07T03:30:40.278Z,7.90
2019-04-07T03:33:22.667Z,7.90
2019-04-07T03:35:55.385Z,7.90
2019-04-07T03:38:24.812Z,8.00
2019-04-07T03:40:55.485Z,7.90
2019-04-07T03:43:42.794Z,7.90
2019-04-07T03:46:28.567Z,7.90
2019-04-07T03:49:17.067Z,8.00
2019-04-07T03:51:59.877Z,8.00
2019-04-07T03:54:33.623Z,8.00
2019-04-07T03:57:04.786Z,7.90
2019-04-07T03:59:41.060Z,7.90
2019-04-07T04:02:29.899Z,7.90
2019-04-07T04:05:03.511Z,7.90
2019-04-07T04:07:40.327Z,7.90
2019-04-07T04:10:11.152Z,7.90
2019-04-07T04:12:44.436Z,7.90
2019-04-07T04:15:15.188Z,7.90
2019-04-07T04:17:44.100Z,8.00
2019-04-07T04:20:13.336Z,8.00
2019-04-07T04:22:43.108Z,8.10
2019-04-07T04:25:12.625Z,8.10
2019-04-07T04:27:41.992Z,8.10
2019-04-07T04:30:33.997Z,8.20
2019-04-07T04:33:03.961Z,8.20
2019-04-07T04:35:33.058Z,8.20
2019-04-07T04:38:02.176Z,8.20
2019-04-07T04:40:32.289Z,8.30
2019-04-07T04:43:02.695Z,8.30
2019-04-07T04:45:31.769Z,8.30
2019-04-07T04:48:00.651Z,8.40
2019-04-07T04:50:29.960Z,8.40
2019-04-07T04:52:59.797Z,8.40
2019-04-07T04:55:29.737Z,8.50
2019-04-07T04:57:58.982Z,8.50
2019-04-07T05:00:28.567Z,8.50
2019-04-07T05:02:58.167Z,8.50
2019-04-07T05:05:28.004Z,8.60
2019-04-07T05:08:02.714Z,8.60
2019-04-07T05:10:27.634Z,8.60
2019-04-07T05:12:57.206Z,8.60
2019-04-07T05:15:26.263Z,8.60
2019-04-07T05:17:55.194Z,8.50
2019-04-07T05:20:24.082Z,8.50
2019-04-07T05:22:53.446Z,8.50
2019-04-07T05:25:22.607Z,8.50
2019-04-07T05:27:51.664Z,8.50
2019-04-07T05:30:23.521Z,8.60
2019-04-07T05:32:52.568Z,8.60
2019-04-07T05:35:22.445Z,8.60
2019-04-07T05:38:01.795Z,8.60
2019-04-07T05:40:25.641Z,8.70
2019-04-07T05:42:54.594Z,8.60
2019-04-07T05:45:23.866Z,8.60
2019-04-07T05:47:53.475Z,8.70
2019-04-07T05:50:26.782Z,8.70
2019-04-07T05:52:53.988Z,8.70
2019-04-07T05:55:24.327Z,8.70
2019-04-07T05:57:53.428Z,8.70
2019-04-07T06:00:23.379Z,8.80
2019-04-07T06:02:52.789Z,8.80
2019-04-07T06:05:22.224Z,8.80
2019-04-07T06:07:52.637Z,8.90
2019-04-07T06:10:24.324Z,8.90
2019-04-07T06:12:52.987Z,9.00
2019-04-07T06:15:23.189Z,9.00
2019-04-07T06:17:52.259Z,9.10
2019-04-07T06:20:21.220Z,9.10
2019-04-07T06:22:54.665Z,9.20
2019-04-07T06:25:23.691Z,9.20
2019-04-07T06:27:53.232Z,9.30
2019-04-07T06:30:23.344Z,9.50
2019-04-07T06:32:52.806Z,9.60
2019-04-07T06:35:22.450Z,9.70
2019-04-07T06:37:57.653Z,9.80
2019-04-07T06:40:25.569Z,9.80
2019-04-07T06:42:56.813Z,9.80
2019-04-07T06:45:42.222Z,9.80
2019-04-07T06:48:12.156Z,9.80
2019-04-07T06:50:50.791Z,9.90
2019-04-07T06:53:21.882Z,9.90
2019-04-07T06:56:01.327Z,9.90
2019-04-07T06:58:31.056Z,9.90
2019-04-07T07:01:04.635Z,9.90
2019-04-07T07:03:44.116Z,9.90
2019-04-07T07:06:24.129Z,9.90
2019-04-07T07:09:10.582Z,10.00
2019-04-07T07:11:53.101Z,10.10
2019-04-07T07:14:36.711Z,10.20
2019-04-07T07:17:17.005Z,10.20
2019-04-07T07:20:05.575Z,10.30
2019-04-07T07:22:35.908Z,10.40
2019-04-07T07:25:05.668Z,10.60
2019-04-07T07:27:38.771Z,10.70
2019-04-07T07:30:12.047Z,10.80
2019-04-07T07:32:41.142Z,10.90
2019-04-07T07:35:13.307Z,11.00
2019-04-07T07:37:40.712Z,11.10
2019-04-07T07:40:15.441Z,11.20
2019-04-07T07:42:49.006Z,11.30
2019-04-07T07:45:17.486Z,11.40
2019-04-07T07:47:51.224Z,11.50
2019-04-07T07:50:17.883Z,11.70
2019-04-07T07:52:49.219Z,11.80
2019-04-07T07:55:17.607Z,11.90
2019-04-07T07:57:46.975Z,12.10
2019-04-07T08:00:16.979Z,12.30
2019-04-07T08:02:49.133Z,12.50
2019-04-07T08:05:17.163Z,12.60
2019-04-07T08:07:48.995Z,12.80
2019-04-07T08:10:17.047Z,12.80
2019-04-07T08:12:48.663Z,12.80
2019-04-07T08:15:17.064Z,12.90
2019-04-07T08:17:46.353Z,12.90
2019-04-07T08:20:15.359Z,12.90
2019-04-07T08:22:44.981Z,12.90
2019-04-07T08:25:14.218Z,13.00
2019-04-07T08:27:43.976Z,13.00
2019-04-07T08:30:13.869Z,13.00
2019-04-07T08:32:43.240Z,13.00
2019-04-07T08:35:12.247Z,13.00
2019-04-07T08:37:41.575Z,13.00
2019-04-07T08:40:10.910Z,13.00
2019-04-07T08:42:40.028Z,12.90
2019-04-07T08:45:09.415Z,12.90
2019-04-07T08:47:39.115Z,12.90
2019-04-07T08:50:08.801Z,12.80
2019-04-07T08:52:40.715Z,12.80
2019-04-07T08:55:08.209Z,12.80
2019-04-07T08:57:37.335Z,12.80
2019-04-07T09:00:14.958Z,12.90
2019-04-07T09:02:41.593Z,13.00
2019-04-07T09:05:10.598Z,13.10
2019-04-07T09:07:40.060Z,13.20
2019-04-07T09:10:11.471Z,13.30
2019-04-07T09:12:40.779Z,13.40
2019-04-07T09:15:12.825Z,13.50
2019-04-07T09:17:59.071Z,13.60
2019-04-07T09:20:30.248Z,13.70
2019-04-07T09:23:03.005Z,13.80
2019-04-07T09:25:50.153Z,13.90
2019-04-07T09:28:23.743Z,14.00
2019-04-07T09:30:53.619Z,14.10
2019-04-07T09:33:43.259Z,14.10
2019-04-07T09:36:14.199Z,14.10
2019-04-07T09:38:56.975Z,14.00
2019-04-07T09:41:29.977Z,14.00
2019-04-07T09:44:04.039Z,14.00
2019-04-07T09:46:44.616Z,14.20
2019-04-07T09:49:15.586Z,14.40
2019-04-07T09:51:47.754Z,14.60
2019-04-07T09:54:27.224Z,14.80
2019-04-07T09:56:57.828Z,14.90
2019-04-07T09:59:31.825Z,14.80
2019-04-07T10:02:12.589Z,14.80
2019-04-07T10:04:49.943Z,14.90
2019-04-07T10:07:29.586Z,14.90
2019-04-07T10:10:17.153Z,14.80
2019-04-07T10:12:51.225Z,14.70
2019-04-07T10:15:37.477Z,14.60
2019-04-07T10:18:25.188Z,14.50
2019-04-07T10:21:12.268Z,14.50
2019-04-07T10:23:48.698Z,14.50
2019-04-07T10:26:36.086Z,14.40
2019-04-07T10:29:12.964Z,14.40
2019-04-07T10:31:47.387Z,14.40
2019-04-07T10:34:34.163Z,14.40
2019-04-07T10:37:14.479Z,14.30
2019-04-07T10:39:46.147Z,14.40
2019-04-07T10:42:26.177Z,14.40
2019-04-07T10:44:57.219Z,14.60
2019-04-07T10:47:34.682Z,14.70
2019-04-07T10:50:12.194Z,14.80
2019-04-07T10:52:43.679Z,14.90
2019-04-07T10:55:16.869Z,14.90
2019-04-07T10:57:50.584Z,14.90
2019-04-07T11:00:24.148Z,15.00
2019-04-07T11:03:11.001Z,15.20
2019-04-07T11:05:57.135Z,15.50
2019-04-07T11:08:33.868Z,15.90
2019-04-07T11:11:14.968Z,16.40
2019-04-07T11:14:01.844Z,16.70
2019-04-07T11:16:38.714Z,17.00
2019-04-07T11:19:12.957Z,17.40
2019-04-07T11:21:46.747Z,17.80
2019-04-07T11:24:19.763Z,18.10
2019-04-07T11:26:57.056Z,18.40
2019-04-07T11:29:34.507Z,18.60
2019-04-07T11:32:21.081Z,18.70
2019-04-07T11:34:51.600Z,18.80
2019-04-07T11:37:25.103Z,18.90
2019-04-07T11:40:13.382Z,19.00
2019-04-07T11:42:50.764Z,19.10
2019-04-07T11:45:36.522Z,19.10
2019-04-07T11:48:19.163Z,19.10
2019-04-07T11:50:52.742Z,19.00
2019-04-07T11:53:29.468Z,18.90
2019-04-07T11:56:01.457Z,18.80
2019-04-07T11:58:34.644Z,18.80
2019-04-07T12:01:14.422Z,18.90
2019-04-07T12:03:49.309Z,18.90
2019-04-07T12:06:36.466Z,19.00
2019-04-07T12:09:22.197Z,19.10
2019-04-07T12:12:09.384Z,19.10
2019-04-07T12:14:52.130Z,19.40
2019-04-07T12:17:39.581Z,19.70
2019-04-07T12:20:26.870Z,20.20
2019-04-07T12:23:16.273Z,20.60
2019-04-07T12:25:52.677Z,20.90
2019-04-07T12:28:33.411Z,21.40
2019-04-07T12:31:07.552Z,21.40
2019-04-07T12:33:39.347Z,21.20
2019-04-07T12:36:20.491Z,21.00
2019-04-07T12:39:02.993Z,21.00
2019-04-07T12:41:39.011Z,21.00
2019-04-07T12:44:15.895Z,21.20
2019-04-07T12:46:46.511Z,21.30
2019-04-07T12:49:20.861Z,21.30
2019-04-07T12:52:08.517Z,20.90
2019-04-07T12:54:43.674Z,20.50
2019-04-07T12:57:20.409Z,20.30
2019-04-07T12:59:53.983Z,20.10
2019-04-07T13:02:25.698Z,20.00
2019-04-07T13:05:05.068Z,20.00
2019-04-07T13:07:43.536Z,19.90
2019-04-07T13:10:14.320Z,19.90
2019-04-07T13:13:03.723Z,20.20
2019-04-07T13:15:37.748Z,20.30
2019-04-07T13:18:25.412Z,20.20
2019-04-07T13:20:56.161Z,20.30
2019-04-07T13:23:29.780Z,20.30
2019-04-07T13:26:13.130Z,20.20
2019-04-07T13:28:50.026Z,20.00
2019-04-07T13:31:21.258Z,19.90
2019-04-07T13:33:59.748Z,19.80
2019-04-07T13:36:33.315Z,19.60
2019-04-07T13:39:20.303Z,19.50
2019-04-07T13:41:55.682Z,19.40
2019-04-07T13:44:27.177Z,19.30
2019-04-07T13:47:10.631Z,19.30
2019-04-07T13:49:44.729Z,19.40
2019-04-07T13:52:20.789Z,19.40
2019-04-07T13:55:02.172Z,19.40
2019-04-07T13:57:38.150Z,19.30
2019-04-07T14:00:17.114Z,19.20
2019-04-07T14:03:03.237Z,18.90
2019-04-07T14:05:34.281Z,18.90
2019-04-07T14:08:05.958Z,18.80
2019-04-07T14:10:40.462Z,18.80
2019-04-07T14:13:26.764Z,18.80
2019-04-07T14:16:01.449Z,18.70
2019-04-07T14:18:35.629Z,18.70
2019-04-07T14:21:06.529Z,18.70
2019-04-07T14:23:38.291Z,18.60
2019-04-07T14:26:12.790Z,18.60
2019-04-07T14:28:44.119Z,18.60
2019-04-07T14:31:17.898Z,18.60
2019-04-07T14:34:00.771Z,18.50
2019-04-07T14:36:31.577Z,18.50
2019-04-07T14:39:08.513Z,18.50
2019-04-07T14:41:39.324Z,18.50
2019-04-07T14:44:12.965Z,18.40
2019-04-07T14:46:58.661Z,18.30
2019-04-07T14:49:32.066Z,18.30
2019-04-07T14:52:14.552Z,18.30
2019-04-07T14:54:57.122Z,18.20
2019-04-07T14:57:24.446Z,18.20
2019-04-07T15:00:05.251Z,18.10
2019-04-07T15:02:35.354Z,18.10
2019-04-07T15:05:13.772Z,18.00
2019-04-07T15:08:03.338Z,18.00
2019-04-07T15:10:37.308Z,17.90
2019-04-07T15:13:13.844Z,17.90
2019-04-07T15:15:43.193Z,17.80
2019-04-07T15:18:12.765Z,17.80
2019-04-07T15:20:43.044Z,17.60
2019-04-07T15:23:13.225Z,17.60
2019-04-07T15:25:46.018Z,17.50
2019-04-07T15:28:14.221Z,17.40
2019-04-07T15:30:46.026Z,17.40
2019-04-07T15:33:13.878Z,17.30
2019-04-07T15:35:45.890Z,17.30
2019-04-07T15:38:16.480Z,17.20
2019-04-07T15:40:47.419Z,17.10
2019-04-07T15:43:17.019Z,17.10
2019-04-07T15:45:46.954Z,17.10
2019-04-07T15:48:17.054Z,17.00
2019-04-07T15:50:46.188Z,17.00
2019-04-07T15:53:15.654Z,16.90
2019-04-07T15:55:53.495Z,16.90
2019-04-07T15:58:16.969Z,16.90
2019-04-07T16:00:48.615Z,16.80
2019-04-07T16:03:17.651Z,16.80
2019-04-07T16:05:46.708Z,16.60
2019-04-07T16:08:16.111Z,16.50
2019-04-07T16:10:45.397Z,16.50
2019-04-07T16:13:17.412Z,16.50
2019-04-07T16:15:48.360Z,16.40
2019-04-07T16:18:17.501Z,16.40
2019-04-07T16:20:46.524Z,16.30
2019-04-07T16:23:18.345Z,16.30
2019-04-07T16:25:46.351Z,16.20
2019-04-07T16:28:16.170Z,16.20
2019-04-07T16:30:48.639Z,16.10
2019-04-07T16:33:16.352Z,16.00
2019-04-07T16:35:50.846Z,15.90
2019-04-07T16:38:16.364Z,15.80
2019-04-07T16:40:45.542Z,15.80
2019-04-07T16:43:17.353Z,15.70
2019-04-07T16:45:46.285Z,15.60
2019-04-07T16:48:16.203Z,15.60
2019-04-07T16:50:46.236Z,15.50
2019-04-07T16:53:16.267Z,15.50
2019-04-07T16:55:48.951Z,15.40
2019-04-07T16:58:16.101Z,15.40
2019-04-07T17:00:45.340Z,15.30
2019-04-07T17:03:15.267Z,15.30
2019-04-07T17:05:45.139Z,15.30
2019-04-07T17:08:17.736Z,15.20
2019-04-07T17:10:45.412Z,15.20
2019-04-07T17:13:20.143Z,15.10
2019-04-07T17:15:45.101Z,15.10
2019-04-07T17:18:35.570Z,15.00
2019-04-07T17:21:09.432Z,15.00
2019-04-07T17:23:38.636Z,14.90
2019-04-07T17:26:09.424Z,14.80
2019-04-07T17:28:42.246Z,14.80
2019-04-07T17:31:11.608Z,14.80
2019-04-07T17:33:41.477Z,14.70
2019-04-07T17:36:10.609Z,14.70
2019-04-07T17:38:58.715Z,14.70
2019-04-07T17:41:27.692Z,14.60
2019-04-07T17:44:01.006Z,14.60
2019-04-07T17:46:40.715Z,14.40
2019-04-07T17:49:25.314Z,14.30
2019-04-07T17:51:56.400Z,14.20
2019-04-07T17:54:33.222Z,14.20
2019-04-07T17:57:07.007Z,14.10
2019-04-07T17:59:44.862Z,14.00
2019-04-07T18:02:19.005Z,13.80
2019-04-07T18:05:04.731Z,13.70
2019-04-07T18:07:42.857Z,13.70
2019-04-07T18:10:13.559Z,13.80
2019-04-07T18:13:01.102Z,13.70
2019-04-07T18:15:49.926Z,13.70
2019-04-07T18:18:37.737Z,13.70
2019-04-07T18:21:18.960Z,13.70
2019-04-07T18:23:59.411Z,13.60
2019-04-07T18:26:35.448Z,13.60
2019-04-07T18:29:12.486Z,13.50
2019-04-07T18:31:45.587Z,13.40
2019-04-07T18:34:27.367Z,13.40
2019-04-07T18:37:12.875Z,13.40
2019-04-07T18:39:52.331Z,13.30
2019-04-07T18:42:34.930Z,13.20
2019-04-07T18:45:12.176Z,13.10
2019-04-07T18:47:48.256Z,13.00
2019-04-07T18:50:28.722Z,12.90
2019-04-07T18:53:16.732Z,12.90
2019-04-07T18:56:03.434Z,12.90
2019-04-07T18:58:46.426Z,12.80
2019-04-07T19:01:32.005Z,12.70
2019-04-07T19:04:04.539Z,12.70
2019-04-07T19:06:46.406Z,12.70
2019-04-07T19:09:31.304Z,12.60
2019-04-07T19:12:14.151Z,12.60
2019-04-07T19:15:05.637Z,12.60
2019-04-07T19:17:35.007Z,12.50
2019-04-07T19:20:08.982Z,12.40
2019-04-07T19:22:43.309Z,12.10
2019-04-07T19:25:17.286Z,12.10
2019-04-07T19:27:50.646Z,12.10
2019-04-07T19:30:21.294Z,12.10
2019-04-07T19:33:08.996Z,12.00
2019-04-07T19:35:49.865Z,12.00
2019-04-07T19:38:33.672Z,12.00
2019-04-07T19:41:20.780Z,11.80
2019-04-07T19:43:55.237Z,11.80
2019-04-07T19:46:29.144Z,11.90
2019-04-07T19:49:00.172Z,11.90
2019-04-07T19:51:50.717Z,11.90
2019-04-07T19:54:37.600Z,11.90
2019-04-07T19:57:14.186Z,11.90
2019-04-07T19:59:48.526Z,11.90
2019-04-07T20:02:32.632Z,11.90
2019-04-07T20:05:19.523Z,11.90
2019-04-07T20:07:52.602Z,11.90
2019-04-07T20:10:32.164Z,11.80
2019-04-07T20:13:05.543Z,11.80
2019-04-07T20:15:44.981Z,11.80
2019-04-07T20:18:24.435Z,11.80
2019-04-07T20:20:53.573Z,11.70
2019-04-07T20:23:41.470Z,11.70
2019-04-07T20:26:12.168Z,11.70
2019-04-07T20:28:43.904Z,11.70
2019-04-07T20:31:31.376Z,11.70
2019-04-07T20:34:06.044Z,11.70
2019-04-07T20:36:48.745Z,11.70
2019-04-07T20:39:36.560Z,11.60
2019-04-07T20:42:25.697Z,11.60
2019-04-07T20:45:07.065Z,11.60
2019-04-07T20:47:34.552Z,11.50
2019-04-07T20:50:16.427Z,11.40
2019-04-07T20:52:50.399Z,11.60
2019-04-07T20:55:24.296Z,11.60
2019-04-07T20:58:12.299Z,11.60
2019-04-07T21:00:58.376Z,11.50
2019-04-07T21:03:27.953Z,11.50
2019-04-07T21:06:00.066Z,11.50
2019-04-07T21:08:47.593Z,11.40
2019-04-07T21:11:19.298Z,11.40
2019-04-07T21:13:54.384Z,11.50
2019-04-07T21:16:29.825Z,11.40
2019-04-07T21:19:16.698Z,11.40
2019-04-07T21:22:03.481Z,11.40
2019-04-07T21:24:37.051Z,11.40
2019-04-07T21:27:14.330Z,11.40
2019-04-07T21:30:00.311Z,11.40
2019-04-07T21:32:40.313Z,11.40
2019-04-07T21:35:29.193Z,11.40
2019-04-07T21:38:20.830Z,11.40
2019-04-07T21:40:52.602Z,11.40
2019-04-07T21:43:40.334Z,11.30
2019-04-07T21:46:29.015Z,11.30
2019-04-07T21:49:09.742Z,11.30
2019-04-07T21:51:52.633Z,11.40
2019-04-07T21:54:26.950Z,11.30
2019-04-07T21:57:00.436Z,11.40
2019-04-07T21:59:33.804Z,11.30
2019-04-07T22:02:17.343Z,11.40
2019-04-07T22:04:57.146Z,11.30
2019-04-07T22:07:33.129Z,11.30
2019-04-07T22:10:03.163Z,11.30
2019-04-07T22:12:33.902Z,11.30
2019-04-07T22:15:03.157Z,11.20
2019-04-07T22:17:34.349Z,11.30
2019-04-07T22:20:02.843Z,11.20
2019-04-07T22:22:31.747Z,11.20
2019-04-07T22:25:01.225Z,11.10
2019-04-07T22:27:30.562Z,11.10
2019-04-07T22:30:01.058Z,11.00
2019-04-07T22:32:31.055Z,10.80
2019-04-07T22:35:03.773Z,10.70
2019-04-07T22:37:30.713Z,10.50
2019-04-07T22:40:02.062Z,10.60
2019-04-07T22:42:33.136Z,10.60
2019-04-07T22:45:02.158Z,10.50
2019-04-07T22:47:31.617Z,10.60
2019-04-07T22:50:02.523Z,10.60
2019-04-07T22:52:32.002Z,10.40
2019-04-07T22:55:24.949Z,10.40
2019-04-07T22:57:53.833Z,10.40
2019-04-07T23:00:26.989Z,10.40
2019-04-07T23:02:56.041Z,10.50
2019-04-07T23:05:25.639Z,10.40
2019-04-07T23:07:54.662Z,10.50
2019-04-07T23:10:27.342Z,10.40
2019-04-07T23:12:57.135Z,10.40
2019-04-07T23:15:37.458Z,10.40
2019-04-07T23:17:57.619Z,10.40
2019-04-07T23:20:26.907Z,10.40
2019-04-07T23:22:56.613Z,10.30
2019-04-07T23:25:28.263Z,10.30
2019-04-07T23:27:58.416Z,10.30
2019-04-07T23:30:29.019Z,10.30
2019-04-07T23:32:58.084Z,10.30
2019-04-07T23:35:27.410Z,10.20
2019-04-07T23:37:57.320Z,10.20
2019-04-07T23:40:26.296Z,10.30
2019-04-07T23:42:55.180Z,10.20
2019-04-07T23:45:25.247Z,10.30
2019-04-07T23:47:54.635Z,10.20
2019-04-07T23:50:23.725Z,10.20
2019-04-07T23:52:52.633Z,10.20
2019-04-07T23:55:21.887Z,10.20
2019-04-07T23:57:51.978Z,10.20
